createdAt,value
2023-02-05T00:01:56.778Z,1.13
2023-02-05T00:04:24.144Z,1.10
2023-02-05T00:06:51.161Z,0.93
2023-02-05T00:09:18.135Z,1.08
2023-02-05T00:11:45.153Z,1.00
2023-02-05T00:14:12.171Z,1.20
2023-02-05T00:16:39.318Z,1.20
2023-02-05T00:19:06.375Z,1.05
2023-02-05T00:21:33.413Z,0.90
2023-02-05T00:24:00.636Z,1.10
2023-02-05T00:26:27.707Z,0.90
2023-02-05T00:28:54.728Z,1.13
2023-02-05T00:31:23.583Z,1.17
2023-02-05T00:33:51.764Z,1.35
2023-02-05T00:36:20.041Z,1.15
2023-02-05T00:38:47.619Z,1.20
2023-02-05T00:41:15.339Z,1.13
2023-02-05T00:43:43.638Z,1.20
2023-02-05T00:46:12.482Z,1.42
2023-02-05T00:48:40.669Z,1.20
2023-02-05T00:51:09.491Z,1.23
2023-02-05T00:53:36.656Z,1.20
2023-02-05T00:56:04.523Z,1.10
2023-02-05T00:58:31.773Z,1.42
2023-02-05T01:00:58.903Z,1.35
2023-02-05T01:03:26.250Z,1.38
2023-02-05T01:05:53.308Z,1.40
2023-02-05T01:08:20.473Z,1.02
2023-02-05T01:10:49.682Z,1.27
2023-02-05T01:13:18.165Z,1.48
2023-02-05T01:15:46.550Z,1.08
2023-02-05T01:18:13.825Z,1.23
2023-02-05T01:20:42.334Z,1.15
2023-02-05T01:23:10.389Z,1.27
2023-02-05T01:25:38.055Z,1.40
2023-02-05T01:28:06.856Z,1.30
2023-02-05T01:30:34.994Z,1.20
2023-02-05T01:33:02.726Z,1.60
2023-02-05T01:35:29.907Z,1.73
2023-02-05T01:37:56.937Z,1.20
2023-02-05T01:40:24.161Z,0.95
2023-02-05T01:42:51.143Z,1.15
2023-02-05T01:45:29.653Z,1.10
2023-02-05T01:50:38.847Z,1.25
2023-02-05T01:53:11.003Z,1.30
2023-02-05T01:55:45.236Z,1.42
2023-02-05T01:58:13.300Z,1.73
2023-02-05T02:00:40.428Z,1.45
2023-02-05T02:03:07.526Z,1.35
2023-02-05T02:05:34.862Z,1.17
2023-02-05T02:08:02.676Z,1.30
2023-02-05T02:10:30.568Z,1.43
2023-02-05T02:12:57.626Z,1.27
2023-02-05T02:15:27.367Z,1.30
2023-02-05T02:18:20.457Z,1.20
2023-02-05T02:21:05.509Z,1.20
2023-02-05T02:24:03.012Z,1.50
2023-02-05T02:26:53.115Z,1.80
2023-02-05T02:29:56.960Z,1.10
2023-02-05T02:32:34.759Z,1.10
2023-02-05T02:35:10.358Z,1.00
2023-02-05T02:37:45.571Z,1.20
2023-02-05T02:40:18.636Z,1.60
2023-02-05T02:42:57.762Z,2.17
2023-02-05T02:45:27.805Z,1.30
2023-02-05T02:47:58.926Z,1.40
2023-02-05T02:50:33.180Z,1.50
2023-02-05T02:53:08.874Z,1.88
2023-02-05T02:55:43.712Z,1.67
2023-02-05T02:58:23.490Z,1.63
2023-02-05T03:00:54.850Z,1.80
2023-02-05T03:03:25.288Z,2.65
2023-02-05T03:05:55.552Z,1.90
2023-02-05T03:08:29.144Z,1.83
2023-02-05T03:11:02.634Z,1.70
2023-02-05T03:13:31.133Z,2.28
2023-02-05T03:16:01.022Z,1.80
2023-02-05T03:18:29.451Z,2.30
2023-02-05T03:23:36.358Z,1.70
2023-02-05T03:26:03.415Z,1.63
2023-02-05T03:28:43.004Z,1.60
2023-02-05T03:31:18.831Z,1.70
2023-02-05T03:33:52.008Z,1.83
2023-02-05T03:36:30.556Z,1.60
2023-02-05T03:39:31.197Z,1.30
2023-02-05T03:42:20.300Z,1.48
2023-02-05T03:44:59.439Z,1.52
2023-02-05T03:47:43.462Z,1.63
2023-02-05T03:50:14.592Z,1.33
2023-02-05T03:52:49.235Z,1.33
2023-02-05T03:55:27.044Z,1.42
2023-02-05T03:58:02.339Z,1.10
2023-02-05T04:00:31.727Z,1.50
2023-02-05T04:03:00.937Z,1.30
2023-02-05T04:05:32.220Z,1.20
2023-02-05T04:08:02.033Z,1.40
2023-02-05T04:10:34.885Z,1.40
2023-02-05T04:13:03.616Z,1.60
2023-02-05T04:15:32.745Z,1.40
2023-02-05T04:18:02.203Z,1.52
2023-02-05T04:20:30.268Z,1.45
2023-02-05T04:22:58.343Z,1.00
2023-02-05T04:25:26.604Z,1.10
2023-02-05T04:27:55.559Z,1.58
2023-02-05T04:30:23.672Z,1.30
2023-02-05T04:32:51.385Z,1.67
2023-02-05T04:35:19.195Z,1.80
2023-02-05T04:37:48.046Z,1.20
2023-02-05T04:40:16.035Z,1.30
2023-02-05T04:42:43.339Z,1.35
2023-02-05T04:45:10.590Z,1.65
2023-02-05T04:47:37.770Z,1.38
2023-02-05T04:50:05.273Z,1.20
2023-02-05T04:52:32.315Z,1.30
2023-02-05T04:54:59.380Z,1.50
2023-02-05T04:57:26.497Z,1.35
2023-02-05T04:59:53.547Z,1.13
2023-02-05T05:02:20.802Z,1.40
2023-02-05T05:04:47.873Z,1.40
2023-02-05T05:07:15.952Z,1.27
2023-02-05T05:09:44.332Z,0.82
2023-02-05T05:12:12.729Z,1.38
2023-02-05T05:14:39.986Z,1.85
2023-02-05T05:17:07.001Z,1.52
2023-02-05T05:19:34.036Z,1.38
2023-02-05T05:22:01.111Z,1.55
2023-02-05T05:24:28.245Z,1.15
2023-02-05T05:26:55.319Z,1.10
2023-02-05T05:29:22.810Z,1.15
2023-02-05T05:31:52.632Z,1.20
2023-02-05T05:34:22.431Z,1.17
2023-02-05T05:36:49.616Z,1.48
2023-02-05T05:39:35.314Z,1.23
2023-02-05T05:42:20.827Z,1.20
2023-02-05T05:44:52.192Z,1.15
2023-02-05T05:47:19.708Z,1.10
2023-02-05T05:49:47.433Z,1.23
2023-02-05T05:52:14.945Z,1.30
2023-02-05T05:54:42.520Z,1.40
2023-02-05T05:57:09.801Z,1.00
2023-02-05T05:59:36.966Z,1.13
2023-02-05T06:02:04.707Z,1.25
2023-02-05T06:04:32.068Z,1.13
2023-02-05T06:06:59.525Z,1.33
2023-02-05T06:09:26.622Z,1.10
2023-02-05T06:11:53.633Z,1.10
2023-02-05T06:14:21.745Z,1.15
2023-02-05T06:16:48.774Z,1.13
2023-02-05T06:19:15.830Z,1.48
2023-02-05T06:21:42.822Z,1.05
2023-02-05T06:24:09.894Z,1.08
2023-02-05T06:26:37.002Z,1.30
2023-02-05T06:29:04.117Z,1.25
2023-02-05T06:31:31.959Z,1.23
2023-02-05T06:34:01.271Z,1.35
2023-02-05T06:36:28.398Z,1.10
2023-02-05T06:38:55.413Z,1.15
2023-02-05T06:41:22.492Z,0.90
2023-02-05T06:43:49.477Z,1.13
2023-02-05T06:46:16.544Z,1.23
2023-02-05T06:48:43.615Z,1.00
2023-02-05T06:51:10.626Z,1.50
2023-02-05T06:53:37.704Z,1.00
2023-02-05T06:56:05.332Z,0.95
2023-02-05T06:58:32.342Z,1.33
2023-02-05T07:00:59.516Z,1.55
2023-02-05T07:03:26.530Z,1.00
2023-02-05T07:05:53.594Z,1.00
2023-02-05T07:08:20.775Z,1.00
2023-02-05T07:10:47.757Z,0.90
2023-02-05T07:13:14.789Z,1.08
2023-02-05T07:15:41.854Z,1.08
2023-02-05T07:18:08.852Z,1.10
2023-02-05T07:20:36.011Z,1.30
2023-02-05T07:23:03.065Z,1.15
2023-02-05T07:25:36.505Z,1.20
2023-02-05T07:28:06.434Z,0.85
2023-02-05T07:30:34.346Z,1.13
2023-02-05T07:33:03.541Z,1.05
2023-02-05T07:35:32.207Z,1.10
2023-02-05T07:37:59.491Z,1.20
2023-02-05T07:40:27.054Z,1.10
2023-02-05T07:42:54.054Z,1.50
2023-02-05T07:45:21.086Z,0.88
2023-02-05T07:47:50.575Z,1.20
2023-02-05T07:50:18.076Z,1.10
2023-02-05T07:52:45.151Z,1.10
2023-02-05T07:55:12.155Z,1.17
2023-02-05T07:57:39.227Z,1.17
2023-02-05T08:00:07.568Z,1.33
2023-02-05T08:02:39.409Z,1.50
2023-02-05T08:05:07.293Z,1.48
2023-02-05T08:07:34.267Z,1.10
2023-02-05T08:10:01.347Z,1.35
2023-02-05T08:12:28.869Z,1.20
2023-02-05T08:14:59.300Z,1.17
2023-02-05T08:17:26.419Z,1.58
2023-02-05T08:19:53.529Z,1.10
2023-02-05T08:22:20.625Z,0.93
2023-02-05T08:24:47.704Z,1.00
2023-02-05T08:27:14.766Z,1.20
2023-02-05T08:29:41.768Z,1.20
2023-02-05T08:32:08.963Z,0.88
2023-02-05T08:34:36.220Z,1.20
2023-02-05T08:37:03.176Z,1.20
2023-02-05T08:39:30.238Z,1.20
2023-02-05T08:41:57.283Z,1.48
2023-02-05T08:44:24.845Z,1.20
2023-02-05T08:46:51.855Z,1.00
2023-02-05T08:49:19.276Z,1.15
2023-02-05T08:51:46.550Z,1.10
2023-02-05T08:54:15.253Z,1.20
2023-02-05T08:56:43.950Z,1.23
2023-02-05T09:01:41.041Z,1.42
2023-02-05T09:04:08.751Z,1.00
2023-02-05T09:06:35.910Z,1.03
2023-02-05T09:09:03.087Z,1.35
2023-02-05T09:11:30.674Z,1.23
2023-02-05T09:13:58.624Z,1.10
2023-02-05T09:16:26.115Z,1.23
2023-02-05T09:19:00.160Z,0.90
2023-02-05T09:21:27.468Z,1.20
2023-02-05T09:23:55.009Z,1.00
2023-02-05T09:26:22.118Z,1.02
2023-02-05T09:28:49.187Z,1.10
2023-02-05T09:31:18.648Z,1.30
2023-02-05T09:33:46.586Z,1.10
2023-02-05T09:36:17.053Z,1.05
2023-02-05T09:38:45.673Z,0.93
2023-02-05T09:43:54.514Z,1.42
2023-02-05T09:46:21.550Z,1.52
2023-02-05T09:48:53.769Z,0.82
2023-02-05T09:51:32.760Z,1.08
2023-02-05T09:54:06.647Z,1.50
2023-02-05T09:56:36.435Z,1.40
2023-02-05T09:59:05.923Z,1.42
2023-02-05T10:01:59.846Z,1.20
2023-02-05T10:04:28.443Z,1.45
2023-02-05T10:09:40.356Z,1.15
2023-02-05T10:12:25.745Z,1.10
2023-02-05T10:15:03.825Z,1.52
2023-02-05T10:18:08.544Z,1.20
2023-02-05T10:20:47.505Z,1.58
2023-02-05T10:23:32.127Z,1.38
2023-02-05T10:26:13.466Z,1.30
2023-02-05T10:29:03.878Z,1.75
2023-02-05T10:31:42.298Z,1.55
2023-02-05T10:34:21.485Z,1.83
2023-02-05T10:36:53.789Z,1.30
2023-02-05T10:39:26.510Z,1.40
2023-02-05T10:42:03.369Z,1.35
2023-02-05T10:44:34.744Z,1.30
2023-02-05T10:47:18.518Z,1.40
2023-02-05T10:49:51.165Z,1.30
2023-02-05T10:52:18.357Z,1.10
2023-02-05T10:54:45.957Z,1.17
2023-02-05T10:57:20.616Z,1.52
2023-02-05T11:00:01.014Z,1.27
2023-02-05T11:02:39.670Z,1.40
2023-02-05T11:05:27.500Z,1.55
2023-02-05T11:07:55.053Z,1.25
2023-02-05T11:10:23.660Z,1.60
2023-02-05T11:15:31.459Z,1.67
2023-02-05T11:18:07.390Z,1.30
2023-02-05T11:20:37.767Z,1.70
2023-02-05T11:23:18.796Z,1.90
2023-02-05T11:26:00.651Z,1.40
2023-02-05T11:28:33.363Z,1.58
2023-02-05T11:31:26.546Z,1.40
2023-02-05T11:34:19.932Z,1.40
2023-02-05T11:36:51.240Z,1.80
2023-02-05T11:39:34.194Z,1.60
2023-02-05T11:42:26.468Z,1.73
2023-02-05T11:45:02.800Z,2.03
2023-02-05T11:47:36.951Z,1.77
2023-02-05T11:50:06.194Z,2.10
2023-02-05T11:52:37.459Z,2.15
2023-02-05T11:55:06.498Z,1.80
2023-02-05T11:57:39.313Z,2.15
2023-02-05T12:00:09.510Z,1.67
2023-02-05T12:02:38.693Z,1.60
2023-02-05T12:05:28.357Z,1.70
2023-02-05T12:08:18.875Z,1.52
2023-02-05T12:11:03.436Z,1.83
2023-02-05T12:13:56.210Z,1.77
2023-02-05T12:16:55.713Z,1.58
2023-02-05T12:19:38.798Z,2.17
2023-02-05T12:22:21.589Z,1.42
2023-02-05T12:25:18.337Z,2.15
2023-02-05T12:28:09.767Z,2.10
2023-02-05T12:31:00.224Z,2.15
2023-02-05T12:33:55.425Z,1.90
2023-02-05T12:36:44.564Z,1.70
2023-02-05T12:39:30.117Z,1.88
2023-02-05T12:42:23.484Z,1.85
2023-02-05T12:44:56.629Z,1.85
2023-02-05T12:47:47.412Z,2.13
2023-02-05T12:50:32.596Z,2.00
2023-02-05T12:53:18.190Z,1.88
2023-02-05T12:56:06.853Z,1.67
2023-02-05T12:58:43.391Z,1.60
2023-02-05T13:01:20.345Z,1.80
2023-02-05T13:04:01.432Z,1.55
2023-02-05T13:06:49.102Z,1.90
2023-02-05T13:09:19.469Z,1.80
2023-02-05T13:12:05.215Z,1.77
2023-02-05T13:14:54.488Z,1.60
2023-02-05T13:17:31.578Z,1.55
2023-02-05T13:20:05.751Z,1.90
2023-02-05T13:23:02.667Z,1.30
2023-02-05T13:26:02.477Z,1.90
2023-02-05T13:28:41.084Z,2.20
2023-02-05T13:33:56.414Z,1.73
2023-02-05T13:36:29.253Z,1.50
2023-02-05T13:39:16.299Z,1.58
2023-02-05T13:42:02.255Z,1.30
2023-02-05T13:44:53.040Z,1.10
2023-02-05T13:47:51.456Z,1.65
2023-02-05T13:50:33.771Z,1.60
2023-02-05T13:53:29.448Z,1.70
2023-02-05T13:56:20.805Z,1.40
2023-02-05T13:58:52.612Z,1.38
2023-02-05T14:01:26.538Z,1.20
2023-02-05T14:03:58.694Z,1.40
2023-02-05T14:06:40.407Z,1.67
2023-02-05T14:09:20.531Z,1.50
2023-02-05T14:11:57.005Z,0.95
2023-02-05T14:14:28.905Z,1.70
2023-02-05T14:16:58.150Z,1.42
2023-02-05T14:19:49.010Z,1.45
2023-02-05T14:22:39.163Z,1.77
2023-02-05T14:25:42.844Z,1.38
2023-02-05T14:28:15.878Z,1.40
2023-02-05T14:30:52.269Z,1.20
2023-02-05T14:33:37.619Z,1.33
2023-02-05T14:36:17.148Z,1.73
2023-02-05T14:39:06.782Z,1.30
2023-02-05T14:41:40.245Z,1.20
2023-02-05T14:44:28.384Z,1.30
2023-02-05T14:47:21.495Z,1.10
2023-02-05T14:49:51.125Z,1.30
2023-02-05T14:52:32.966Z,1.17
2023-02-05T14:55:02.328Z,1.65
2023-02-05T14:57:54.402Z,1.20
2023-02-05T15:00:32.844Z,1.02
2023-02-05T15:03:12.771Z,1.35
2023-02-05T15:05:46.341Z,1.75
2023-02-05T15:08:15.958Z,1.02
2023-02-05T15:10:52.144Z,1.33
2023-02-05T15:13:20.603Z,2.05
2023-02-05T15:16:16.719Z,1.60
2023-02-05T15:18:53.187Z,1.55
2023-02-05T15:21:40.613Z,1.55
2023-02-05T15:24:27.066Z,1.60
2023-02-05T15:27:02.606Z,0.90
2023-02-05T15:29:47.395Z,1.10
2023-02-05T15:32:48.200Z,1.20
2023-02-05T15:35:19.701Z,1.02
2023-02-05T15:37:52.900Z,1.00
2023-02-05T15:40:27.910Z,0.70
2023-02-05T15:43:09.548Z,1.15
2023-02-05T15:45:46.660Z,1.27
2023-02-05T15:48:19.619Z,1.30
2023-02-05T15:50:52.573Z,1.85
2023-02-05T15:53:39.404Z,1.48
2023-02-05T15:56:21.733Z,1.90
2023-02-05T15:59:10.314Z,1.42
2023-02-05T16:01:39.126Z,6.60
2023-02-05T16:06:47.379Z,6.07
2023-02-05T16:09:23.512Z,4.80
2023-02-05T16:11:51.060Z,4.15
2023-02-05T16:14:23.862Z,3.42
2023-02-05T16:17:18.304Z,2.90
2023-02-05T16:19:51.311Z,2.47
2023-02-05T16:22:55.575Z,2.85
2023-02-05T16:25:31.571Z,3.80
2023-02-05T16:28:02.670Z,3.30
2023-02-05T16:30:43.720Z,3.30
2023-02-05T16:33:25.599Z,3.15
2023-02-05T16:35:53.396Z,2.35
2023-02-05T16:38:23.425Z,2.43
2023-02-05T16:40:53.380Z,2.78
2023-02-05T16:43:35.921Z,4.03
2023-02-05T16:46:09.192Z,3.58
2023-02-05T16:48:45.452Z,3.17
2023-02-05T16:51:33.051Z,3.63
2023-02-05T16:54:01.967Z,3.13
2023-02-05T16:56:35.953Z,3.05
2023-02-05T16:59:05.393Z,2.80
2023-02-05T17:01:43.097Z,2.60
2023-02-05T17:04:27.482Z,2.47
2023-02-05T17:06:57.047Z,2.88
2023-02-05T17:09:39.110Z,2.92
2023-02-05T17:12:35.343Z,4.28
2023-02-05T17:15:03.804Z,3.75
2023-02-05T17:17:33.137Z,3.47
2023-02-05T17:20:15.554Z,2.80
2023-02-05T17:23:03.102Z,3.78
2023-02-05T17:25:51.759Z,5.70
2023-02-05T17:28:21.927Z,12.93
2023-02-05T17:30:50.218Z,16.40
2023-02-05T17:33:23.766Z,18.73
2023-02-05T17:35:51.385Z,19.42
2023-02-05T17:38:20.695Z,19.25
2023-02-05T17:40:48.028Z,16.20
2023-02-05T17:43:15.304Z,14.43
2023-02-05T17:45:44.332Z,17.52
2023-02-05T17:48:11.717Z,13.35
2023-02-05T17:50:39.198Z,11.05
2023-02-05T17:53:06.394Z,11.02
2023-02-05T17:55:39.191Z,13.02
2023-02-05T17:58:06.297Z,14.45
2023-02-05T18:00:33.583Z,16.65
2023-02-05T18:03:00.861Z,18.02
2023-02-05T18:05:28.411Z,18.67
2023-02-05T18:07:58.183Z,18.42
2023-02-05T18:10:28.575Z,17.45
2023-02-05T18:12:56.269Z,17.13
2023-02-05T18:15:24.948Z,15.73
2023-02-05T18:20:21.122Z,16.33
2023-02-05T18:22:49.213Z,16.80
2023-02-05T18:25:16.364Z,16.38
2023-02-05T18:27:43.463Z,16.38
2023-02-05T18:30:11.233Z,15.30
2023-02-05T18:32:38.239Z,14.20
2023-02-05T18:35:05.504Z,14.18
2023-02-05T18:37:32.516Z,15.25
2023-02-05T18:39:59.534Z,16.60
2023-02-05T18:42:27.078Z,19.08
2023-02-05T18:44:54.215Z,24.67
2023-02-05T18:47:21.393Z,25.67
2023-02-05T18:49:48.340Z,25.67
2023-02-05T18:52:15.509Z,24.50
2023-02-05T18:54:44.039Z,24.55
2023-02-05T18:57:12.791Z,24.17
2023-02-05T18:59:40.708Z,27.25
2023-02-05T19:02:10.393Z,29.38
2023-02-05T19:04:37.443Z,27.73
2023-02-05T19:07:05.485Z,24.02
2023-02-05T19:09:32.618Z,23.05
2023-02-05T19:11:59.782Z,22.52
2023-02-05T19:14:27.355Z,24.55
2023-02-05T19:16:54.647Z,24.35
2023-02-05T19:19:24.876Z,22.52
2023-02-05T19:21:54.206Z,22.08
2023-02-05T19:24:22.133Z,24.83
2023-02-05T19:26:50.970Z,26.23
2023-02-05T19:29:20.402Z,24.60
2023-02-05T19:31:48.096Z,23.52
2023-02-05T19:34:15.738Z,24.55
2023-02-05T19:36:42.931Z,23.07
2023-02-05T19:39:13.172Z,21.20
2023-02-05T19:41:41.691Z,19.38
2023-02-05T19:44:09.443Z,18.30
2023-02-05T19:46:41.620Z,25.40
2023-02-05T19:49:13.973Z,25.25
2023-02-05T19:51:43.880Z,23.60
2023-02-05T19:54:10.905Z,23.63
2023-02-05T19:56:38.174Z,25.58
2023-02-05T19:59:06.738Z,23.77
2023-02-05T20:01:36.371Z,25.48
2023-02-05T20:04:19.502Z,24.35
2023-02-05T20:06:50.041Z,22.10
2023-02-05T20:09:17.710Z,19.83
2023-02-05T20:11:48.731Z,20.17
2023-02-05T20:14:17.044Z,17.65
2023-02-05T20:16:47.014Z,17.80
2023-02-05T20:19:16.448Z,17.90
2023-02-05T20:21:44.866Z,14.68
2023-02-05T20:24:12.460Z,13.80
2023-02-05T20:26:39.796Z,15.83
2023-02-05T20:29:25.807Z,14.02
2023-02-05T20:31:54.978Z,15.23
2023-02-05T20:34:25.838Z,16.00
2023-02-05T20:36:55.993Z,15.40
2023-02-05T20:39:28.586Z,15.48
2023-02-05T20:41:57.980Z,16.45
2023-02-05T20:44:27.362Z,15.85
2023-02-05T20:46:55.080Z,17.17
2023-02-05T20:49:22.799Z,15.48
2023-02-05T20:51:50.190Z,15.60
2023-02-05T20:54:17.464Z,18.02
2023-02-05T20:56:44.536Z,16.05
2023-02-05T20:59:12.366Z,17.42
2023-02-05T21:01:40.632Z,16.80
2023-02-05T21:04:10.264Z,17.35
2023-02-05T21:06:39.480Z,16.02
2023-02-05T21:09:07.709Z,17.92
2023-02-05T21:11:34.942Z,17.38
2023-02-05T21:14:03.600Z,16.60
2023-02-05T21:18:58.158Z,17.23
2023-02-05T21:21:27.917Z,17.27
2023-02-05T21:24:07.021Z,16.65
2023-02-05T21:26:35.535Z,16.92
2023-02-05T21:29:06.806Z,15.05
2023-02-05T21:31:45.071Z,14.85
2023-02-05T21:34:23.388Z,12.20
2023-02-05T21:36:51.491Z,11.68
2023-02-05T21:39:21.687Z,10.45
2023-02-05T21:41:53.424Z,10.07
2023-02-05T21:44:20.556Z,11.63
2023-02-05T21:46:47.603Z,12.07
2023-02-05T21:49:14.795Z,12.43
2023-02-05T21:51:42.486Z,11.48
2023-02-05T21:54:11.509Z,13.00
2023-02-05T21:56:41.847Z,11.80
2023-02-05T21:59:11.132Z,11.77
2023-02-05T22:01:38.442Z,11.18
2023-02-05T22:04:10.480Z,10.70
2023-02-05T22:06:37.977Z,11.00
2023-02-05T22:09:08.271Z,11.00
2023-02-05T22:11:35.860Z,11.05
2023-02-05T22:14:02.882Z,11.43
2023-02-05T22:16:35.357Z,12.15
2023-02-05T22:19:03.319Z,14.45
2023-02-05T22:21:36.794Z,14.90
2023-02-05T22:24:05.251Z,15.30
2023-02-05T22:29:02.508Z,13.63
2023-02-05T22:31:32.051Z,13.65
2023-02-05T22:33:59.700Z,13.32
2023-02-05T22:36:29.418Z,12.23
2023-02-05T22:38:56.892Z,11.98
2023-02-05T22:41:28.401Z,10.45
2023-02-05T22:43:57.329Z,9.45
2023-02-05T22:46:27.298Z,8.23
2023-02-05T22:48:55.482Z,8.80
2023-02-05T22:51:25.506Z,8.38
2023-02-05T22:53:54.039Z,8.27
2023-02-05T22:56:21.884Z,7.97
2023-02-05T22:58:50.054Z,8.23
2023-02-05T23:01:23.422Z,7.85
2023-02-05T23:03:52.009Z,8.02
2023-02-05T23:08:54.027Z,9.13
2023-02-05T23:11:21.550Z,8.32
2023-02-05T23:13:49.329Z,7.70
2023-02-05T23:16:25.620Z,7.70
2023-02-05T23:18:55.449Z,6.88
2023-02-05T23:21:26.405Z,7.55
2023-02-05T23:23:53.472Z,7.15
2023-02-05T23:26:26.581Z,6.75
2023-02-05T23:28:55.262Z,6.82
2023-02-05T23:33:49.835Z,7.22
2023-02-05T23:36:17.281Z,7.45
2023-02-05T23:38:44.595Z,7.80
2023-02-05T23:41:12.381Z,7.18
2023-02-05T23:43:39.988Z,7.00
2023-02-05T23:46:08.193Z,6.80
2023-02-05T23:48:35.926Z,5.80
2023-02-05T23:51:03.176Z,6.30
2023-02-05T23:53:30.267Z,6.00
2023-02-05T23:55:57.398Z,6.78
2023-02-05T23:58:26.078Z,6.10
